Monday, June 25, 2018, 9:38 AM EDT
Back to Local

KRDG, Reading Regional Airport

Location: Reading, PA, United States Lat: 40.367
Local Time: 9:38 AM EDT (13:38 GMT) Lon: -75.967
Time Zone: US/Eastern Elev: 344 ft

Show me the last for .
Show Decoded

2018-06-25 08:54 METAR KRDG 251254Z 35012KT 10SM BKN027 21/16 A3005 RMK AO2 SLP179 T02110161 =
2018-06-25 07:54 METAR KRDG 251154Z 30005KT 10SM CLR 21/16 A3003 RMK AO2 SLP171 70007 T02060161
                 10206 20183 51024 =
2018-06-25 06:54 METAR KRDG 251054Z 31004KT 10SM CLR 20/16 A3001 RMK AO2 SLP165 T02000156 =
2018-06-25 05:54 METAR KRDG 250954Z 26004KT 10SM FEW033 19/15 A2999 RMK AO2 SLP158 T01890150 =
2018-06-25 04:54 METAR KRDG 250854Z AUTO 34009KT 10SM OVC030 20/16 A2996 RMK AO2 SLP146 T02000161
                 53023 =
2018-06-25 04:16 METAR KRDG 250816Z AUTO 33009KT 10SM BKN028 OVC033 20/16 A2993 RMK AO2 T02000161
                 =
2018-06-25 03:54 METAR KRDG 250754Z AUTO 35005KT 10SM OVC034 20/17 A2993 RMK AO2 SLP136 T02000167
                 =
2018-06-25 02:54 METAR KRDG 250654Z AUTO 30007KT 10SM FEW027 SCT036 19/18 A2991 RMK AO2 SLP130
                 T01940178 =
2018-06-25 01:54 METAR KRDG 250554Z AUTO 28007KT 10SM FEW035 19/18 A2989 RMK AO2 SLP123 60000
                 T01940178 10233 20183 53004 =
2018-06-25 00:54 METAR KRDG 250454Z AUTO 27003KT 10SM CLR 19/18 A2987 RMK AO2 SLP117 T01940178
                 403000189 =
2018-06-24 23:54 METAR KRDG 250354Z 00000KT 7SM CLR 19/19 A2988 RMK AO2 SLP122 T01940194 =
2018-06-24 22:54 METAR KRDG 250254Z 24003KT 10SM CLR 21/19 A2987 RMK AO2 SLP118 60000 T02060194
                 51015 =
2018-06-24 21:54 METAR KRDG 250154Z 27006KT 10SM CLR 21/20 A2987 RMK AO2 SLP118 T02110200 =
2018-06-24 20:54 METAR KRDG 250054Z 29006KT 10SM BKN090 OVC110 22/21 A2985 RMK AO2 RAE2357 SLP110
                 P0000 T02220206 =
2018-06-24 19:54 METAR KRDG 242354Z 31004KT 10SM -RA FEW044 SCT060 OVC085 23/22 A2983 RMK AO2
                 RAB29 SLP103 P0002 60007 T02280217 10300 20228 53014 =
2018-06-24 18:54 METAR KRDG 242254Z 20007KT 10SM FEW047 SCT070 BKN110 23/21 A2979 RMK AO2 LTG
                 DSNT SE-W RAE20B41E51 TSE03 SLP091 P0003 T02280206 =
2018-06-24 18:38 METAR KRDG 242238Z 31011G15KT 10SM FEW047 BKN070 OVC100 23/21 A2980 RMK AO2 LTG
                 DSNT E AND SE RAE20 TSE03 P0003 T02330206 =
2018-06-24 18:23 METAR KRDG 242223Z 23006KT 10SM VCTS BKN095 OVC110 23/20 A2979 RMK AO2 LTG DSNT
                 SE AND SW AND NW RAE20 TSE03 P0003 T02330200 =
2018-06-24 18:16 METAR KRDG 242216Z 26010KT 10SM -RA BKN095 OVC110 24/21 A2980 RMK AO2 TSE03
                 P0003 T02390211 =
2018-06-24 18:09 METAR KRDG 242209Z 25013G21KT 10SM VCTS -RA FEW047 BKN095 OVC120 25/21 A2979 RMK
                 AO2 LTG DSNT SW TSE03 P0003 T02500211 =
2018-06-24 17:54 METAR KRDG 242154Z 26006KT 10SM -TSRA SCT095 BKN110 28/22 A2978 RMK AO2 LTG DSNT
                 W RAB48 TSB48 SLP088 P0000 T02780217 =
2018-06-24 16:54 METAR KRDG 242054Z 28007KT 10SM FEW060 SCT075 29/22 A2979 RMK AO2 RAB02E38
                 SLP090 P0002 60002 T02890217 56011 =
2018-06-24 15:54 METAR KRDG 241954Z VRB04KT 10SM CLR 29/20 A2979 RMK AO2 SLP090 T02890200 =
2018-06-24 14:54 METAR KRDG 241854Z 26010KT 10SM FEW047 SCT070 SCT100 29/20 A2980 RMK AO2 SLP093
                 T02940200 =
2018-06-24 13:54 METAR KRDG 241754Z 28013G21KT 10SM SCT065 29/21 A2982 RMK AO2 SLP100 T02940206
                 10294 20211 58007 =
2018-06-24 12:54 METAR KRDG 241654Z 27010KT 10SM BKN040 BKN090 28/21 A2984 RMK AO2 SLP106
                 T02830206 =
2018-06-24 11:54 METAR KRDG 241554Z 25007KT 10SM FEW032 28/21 A2983 RMK AO2 SLP103 T02830211 =
2018-06-24 10:54 METAR KRDG 241454Z 25007KT 10SM SCT027 27/22 A2984 RMK AO2 SLP107 T02670217
                 55002 =
2018-06-24 09:54 METAR KRDG 241354Z 25007KT 10SM CLR 26/22 A2984 RMK AO2 SLP107 T02560217 =

Support USWX by starting your Amazon purchase here.